Combe Martin, United Kingdom
Current Conditions -  °F | °C
As of 10:50 AM on Thursday 27 Nov 2014 (Local Time) from EGDX Reporting Station
Moderate Fog Moderate Fog  
Wind Chill: 40°   Ceiling: 200
Heat Index: 45°   Visibility: 0.43mi
Dew Point: 43°   Wind: 9mph
Humidity: 93%   Direction: 100°E
Pressure: 29.56"   Gusts: NA
Location:  51.2°N, 4.02°W
Report Text: EGDX 271050Z 10008KT 0700 FG OVC002 07/06 Q1001 RED
Loading
Personal Weather Stations






























Interactive Weather Map New forecast layout! Learn more

10-Day Weather Forecast

Advertisements
Track Severe Weather on mobile